Time;durP1;ratioP1;P1;durP2;ratioP2;P2;SDS_P1;SDS_P2;PMS_P1;PMS_P2;Temp;Humidity;BMP_temperature;BMP_pressure;BME280_temperature;BME280_humidity;BME280_pressure;Samples;Min_cycle;Max_cycle;Signal;HPM_P1;HPM_P2
2022/06/01 00:00:27;;;;;;;25.58;19.17;;;11.70;99.90;;;;;;5006136;28;25072;-69
2022/06/01 00:02:53;;;;;;;21.33;18.23;;;11.80;99.90;;;;;;4991549;28;25096;-69
2022/06/01 00:05:19;;;;;;;23.13;18.55;;;11.70;99.90;;;;;;5026210;28;25101;-67
2022/06/01 00:07:46;;;;;;;19.85;15.25;;;11.70;99.90;;;;;;5026647;28;25070;-67
2022/06/01 00:10:12;;;;;;;16.67;14.82;;;11.50;99.90;;;;;;5026035;28;25099;-69
2022/06/01 00:12:38;;;;;;;14.93;13.43;;;11.70;99.90;;;;;;5024857;28;25072;-68
2022/06/01 00:15:05;;;;;;;20.63;15.95;;;11.60;99.90;;;;;;5026695;28;25081;-68
2022/06/01 00:17:31;;;;;;;21.90;18.15;;;11.20;99.90;;;;;;5028550;28;25069;-68
2022/06/01 00:19:57;;;;;;;31.05;21.40;;;11.70;99.90;;;;;;5027129;28;25068;-68
2022/06/01 00:22:23;;;;;;;21.17;17.60;;;11.80;99.90;;;;;;5030676;28;25077;-67
2022/06/01 00:24:48;;;;;;;14.85;12.93;;;11.50;99.90;;;;;;5031659;28;25072;-66
2022/06/01 00:27:16;;;;;;;17.90;15.23;;;11.80;99.90;;;;;;5033281;28;25105;-68
2022/06/01 00:29:42;;;;;;;14.75;13.25;;;11.20;99.90;;;;;;5014201;28;25073;-68
2022/06/01 00:32:11;;;;;;;23.83;18.95;;;11.60;99.90;;;;;;5031283;28;25063;-67
2022/06/01 00:34:37;;;;;;;26.08;21.42;;;11.40;99.90;;;;;;5031074;28;25065;-70
2022/06/01 00:37:03;;;;;;;31.98;22.98;;;11.70;99.90;;;;;;5029123;28;25069;-70
2022/06/01 00:39:29;;;;;;;36.10;26.85;;;11.80;99.90;;;;;;5026230;28;25074;-70
2022/06/01 00:42:07;;;;;;;33.53;26.75;;;11.70;99.90;;;;;;5035970;28;25067;-69
2022/06/01 00:44:33;;;;;;;38.25;28.23;;;11.60;99.90;;;;;;5037221;28;25077;-68
2022/06/01 00:46:59;;;;;;;40.08;29.10;;;11.90;99.90;;;;;;5047657;28;25088;-70
2022/06/01 00:49:25;;;;;;;39.67;28.83;;;11.60;99.90;;;;;;5039030;28;25092;-68
2022/06/01 00:51:51;;;;;;;38.30;28.52;;;11.60;99.90;;;;;;5031748;28;25073;-67
2022/06/01 00:54:17;;;;;;;40.08;27.38;;;12.00;99.90;;;;;;5037779;28;25080;-68
2022/06/01 00:56:47;;;;;;;27.23;22.13;;;11.70;99.90;;;;;;5037762;28;25046;-68
2022/06/01 00:59:19;;;;;;;39.88;26.42;;;11.80;99.90;;;;;;5034929;28;25051;-69
2022/06/01 01:01:45;;;;;;;36.60;28.27;;;12.20;99.90;;;;;;5033941;28;25069;-71
2022/06/01 01:04:12;;;;;;;34.13;25.63;;;11.80;99.90;;;;;;5026899;28;25048;-69
2022/06/01 01:06:40;;;;;;;43.03;29.73;;;12.00;99.90;;;;;;5027497;28;25048;-69
2022/06/01 01:09:07;;;;;;;33.92;26.40;;;11.70;99.90;;;;;;5024824;28;25062;-69
2022/06/01 01:11:55;;;;;;;37.25;27.23;;;12.00;99.90;;;;;;5026023;28;25091;-69
2022/06/01 01:14:25;;;;;;;49.15;33.75;;;11.60;99.90;;;;;;5021820;28;25092;-69
2022/06/01 01:16:51;;;;;;;46.20;33.30;;;12.00;99.90;;;;;;5026121;28;25051;-70
2022/06/01 01:19:33;;;;;;;45.53;31.55;;;11.80;99.90;;;;;;5026500;28;25107;-68
2022/06/01 01:22:51;;;;;;;51.53;33.30;;;12.10;99.90;;;;;;5025025;28;25071;-70
2022/06/01 01:25:18;;;;;;;51.30;35.22;;;11.70;99.90;;;;;;5000651;28;25133;-70
2022/06/01 01:27:45;;;;;;;48.05;35.08;;;11.80;99.90;;;;;;5023891;28;25074;-73
2022/06/01 01:30:25;;;;;;;55.63;35.65;;;11.90;99.90;;;;;;5006814;28;25081;-69
2022/06/01 01:32:51;;;;;;;59.42;38.58;;;11.70;99.90;;;;;;5023693;28;25059;-71
2022/06/01 01:35:17;;;;;;;51.45;37.08;;;11.70;99.90;;;;;;5023661;28;25057;-71
2022/06/01 01:37:43;;;;;;;60.10;39.47;;;12.10;99.90;;;;;;5013662;28;25073;-70
2022/06/01 01:40:10;;;;;;;55.35;38.53;;;11.90;99.90;;;;;;5024572;28;25131;-70
2022/06/01 01:42:36;;;;;;;63.88;40.28;;;11.80;99.90;;;;;;5026203;28;25052;-68
2022/06/01 01:45:23;;;;;;;58.78;39.42;;;11.90;99.90;;;;;;5022824;28;25143;-70
2022/06/01 01:47:49;;;;;;;85.95;48.00;;;12.10;99.90;;;;;;5021997;28;25122;-69
2022/06/01 01:50:15;;;;;;;58.78;38.95;;;12.00;99.90;;;;;;5023861;28;25081;-69
2022/06/01 01:52:41;;;;;;;73.43;45.28;;;12.00;99.90;;;;;;5022718;28;25167;-69
2022/06/01 01:55:34;;;;;;;65.03;41.38;;;11.70;99.90;;;;;;5026114;28;25058;-69
2022/06/01 01:58:13;;;;;;;70.93;44.72;;;12.00;99.90;;;;;;5017655;28;25108;-72
2022/06/01 02:00:53;;;;;;;73.43;45.42;;;11.60;99.90;;;;;;5023208;28;25132;-71
2022/06/01 02:03:29;;;;;;;72.13;45.40;;;11.60;99.90;;;;;;5026721;28;25084;-68
2022/06/01 02:06:11;;;;;;;66.28;41.90;;;11.80;99.90;;;;;;5028737;28;25118;-70
2022/06/01 02:08:47;;;;;;;74.35;44.75;;;11.60;99.90;;;;;;5028815;28;25054;-70
2022/06/01 02:14:28;;;;;;;80.57;44.72;;;11.50;99.90;;;;;;5025180;28;25060;-71
2022/06/01 02:17:04;;;;;;;90.03;50.35;;;11.70;99.90;;;;;;5013715;28;25056;-67
2022/06/01 02:19:34;;;;;;;79.20;45.83;;;11.40;99.90;;;;;;5024025;28;25152;-68
2022/06/01 02:22:06;;;;;;;73.40;44.53;;;11.40;99.90;;;;;;5023960;28;25070;-67
2022/06/01 02:24:32;;;;;;;65.60;43.28;;;11.50;99.90;;;;;;5020523;28;25089;-69
2022/06/01 02:26:59;;;;;;;68.90;42.90;;;11.60;99.90;;;;;;5026794;28;25116;-67
2022/06/01 02:29:36;;;;;;;75.82;45.25;;;11.70;99.90;;;;;;5026941;28;25145;-68
2022/06/01 02:32:07;;;;;;;66.95;42.00;;;11.30;99.90;;;;;;5024133;28;25063;-70
2022/06/01 02:34:37;;;;;;;65.38;42.13;;;11.40;99.90;;;;;;5022870;28;25084;-67
2022/06/01 02:37:05;;;;;;;68.65;41.70;;;11.30;99.90;;;;;;5023640;28;25102;-67
2022/06/01 02:39:33;;;;;;;60.58;42.00;;;11.60;99.90;;;;;;5006709;28;25064;-68
2022/06/01 02:42:28;;;;;;;79.75;45.13;;;11.20;99.90;;;;;;5025103;28;25111;-67
2022/06/01 02:44:59;;;;;;;70.72;43.45;;;11.30;99.90;;;;;;5024737;28;25053;-68
2022/06/01 02:47:30;;;;;;;79.72;46.45;;;11.50;99.90;;;;;;5020589;28;25046;-68
2022/06/01 02:49:57;;;;;;;62.63;41.28;;;11.20;99.90;;;;;;4998197;28;25057;-68
2022/06/01 02:52:23;;;;;;;64.65;40.20;;;11.40;99.90;;;;;;5013740;28;25079;-68
2022/06/01 02:54:49;;;;;;;60.60;38.00;;;11.60;99.90;;;;;;5022668;28;25218;-67
2022/06/01 02:57:14;;;;;;;63.28;38.30;;;11.60;99.90;;;;;;5021501;28;25129;-68
2022/06/01 02:59:41;;;;;;;60.22;36.00;;;11.50;99.90;;;;;;5023293;28;25102;-68
2022/06/01 03:02:09;;;;;;;55.47;35.38;;;11.40;99.90;;;;;;5007761;28;25131;-67
2022/06/01 03:04:35;;;;;;;49.05;34.00;;;11.30;99.90;;;;;;5007857;28;25078;-67
2022/06/01 03:07:02;;;;;;;58.60;36.00;;;11.30;99.90;;;;;;5029104;28;25087;-67
2022/06/01 03:09:28;;;;;;;75.35;43.33;;;10.90;99.90;;;;;;5024326;28;25092;-67
2022/06/01 03:11:54;;;;;;;58.03;35.10;;;11.30;99.90;;;;;;5034882;28;25139;-68
2022/06/01 03:14:20;;;;;;;49.00;32.33;;;11.00;99.90;;;;;;5032470;28;25064;-67
2022/06/01 03:16:45;;;;;;;46.70;29.98;;;11.40;99.90;;;;;;5028578;28;25063;-68
2022/06/01 03:19:11;;;;;;;40.72;27.17;;;11.30;99.90;;;;;;5027224;28;25151;-67
2022/06/01 03:21:37;;;;;;;45.17;28.50;;;11.10;99.90;;;;;;5030559;28;25152;-68
2022/06/01 03:24:05;;;;;;;43.22;27.77;;;11.40;99.90;;;;;;5044672;28;25105;-70
2022/06/01 03:26:31;;;;;;;48.70;28.80;;;10.90;99.90;;;;;;5044806;28;25064;-69
2022/06/01 03:28:56;;;;;;;41.05;27.45;;;11.10;99.90;;;;;;5041173;28;25068;-70
2022/06/01 03:31:22;;;;;;;41.78;25.75;;;10.90;99.90;;;;;;5038860;28;25078;-68
2022/06/01 03:33:48;;;;;;;35.08;21.30;;;11.30;99.90;;;;;;5044325;28;25092;-69
2022/06/01 03:36:13;;;;;;;42.45;22.63;;;11.20;99.90;;;;;;5046377;28;25113;-67
2022/06/01 03:38:39;;;;;;;31.48;20.42;;;11.30;99.90;;;;;;5047363;28;25087;-69
2022/06/01 03:41:05;;;;;;;25.70;20.13;;;10.90;99.90;;;;;;5050177;28;25057;-68
2022/06/01 03:45:55;;;;;;;33.08;23.25;;;10.70;99.90;;;;;;5035416;28;25066;-67
2022/06/01 03:46:17;;;;;;;37.17;22.52;;;11.20;99.90;;;;;;5026941;28;25062;-67
2022/06/01 03:48:43;;;;;;;32.72;22.90;;;11.10;99.90;;;;;;5025702;28;25057;-68
2022/06/01 03:51:09;;;;;;;29.02;23.58;;;11.00;99.90;;;;;;5025866;28;25063;-68
2022/06/01 03:53:34;;;;;;;34.63;23.90;;;11.40;99.90;;;;;;5006108;28;25085;-67
2022/06/01 03:56:03;;;;;;;37.05;24.98;;;11.10;99.90;;;;;;5025990;28;25054;-68
2022/06/01 03:58:29;;;;;;;36.72;25.50;;;11.40;99.90;;;;;;5024691;28;25052;-74
2022/06/01 04:00:55;;;;;;;39.80;26.95;;;11.50;99.90;;;;;;5024421;28;25085;-70
2022/06/01 04:03:20;;;;;;;35.72;26.95;;;11.10;99.90;;;;;;5024259;28;25149;-70
2022/06/01 04:05:46;;;;;;;45.08;29.70;;;11.10;99.90;;;;;;5023464;28;25051;-70
2022/06/01 04:08:12;;;;;;;51.10;31.15;;;10.90;99.90;;;;;;5023879;28;25197;-69
2022/06/01 04:10:42;;;;;;;41.63;26.88;;;11.30;99.90;;;;;;5005054;28;25055;-69
2022/06/01 04:13:07;;;;;;;53.97;28.92;;;11.00;99.90;;;;;;5022285;28;25050;-68
2022/06/01 04:15:33;;;;;;;37.55;25.23;;;10.80;99.90;;;;;;5023064;28;25063;-68
2022/06/01 04:17:58;;;;;;;42.40;26.30;;;10.70;99.90;;;;;;5024514;28;25059;-68
2022/06/01 04:20:24;;;;;;;41.22;26.20;;;11.20;99.90;;;;;;5025140;28;25145;-69
2022/06/01 04:22:54;;;;;;;41.90;25.30;;;11.20;99.90;;;;;;5023633;28;25059;-67
2022/06/01 04:25:20;;;;;;;40.15;25.70;;;10.80;99.90;;;;;;5026057;28;25197;-68
2022/06/01 04:27:46;;;;;;;46.33;25.52;;;11.10;99.90;;;;;;5026547;28;25106;-68
2022/06/01 04:30:14;;;;;;;32.97;22.02;;;10.90;99.90;;;;;;5032914;28;25054;-67
2022/06/01 04:32:41;;;;;;;39.05;24.13;;;11.40;99.90;;;;;;5019603;28;25131;-72
2022/06/01 04:35:08;;;;;;;39.85;24.27;;;11.20;99.90;;;;;;5029221;28;25062;-70
2022/06/01 04:37:34;;;;;;;38.78;23.33;;;11.10;99.90;;;;;;5013849;28;25047;-69
2022/06/01 04:39:59;;;;;;;31.10;21.42;;;11.40;99.90;;;;;;5008888;28;25064;-68
2022/06/01 04:42:25;;;;;;;30.77;20.85;;;11.60;99.90;;;;;;5006179;28;25063;-68
2022/06/01 04:44:52;;;;;;;34.13;20.92;;;11.50;99.90;;;;;;5024441;28;25138;-68
2022/06/01 04:47:18;;;;;;;35.92;22.35;;;11.50;99.90;;;;;;5026015;28;25075;-68
2022/06/01 04:49:46;;;;;;;38.85;21.60;;;11.70;99.90;;;;;;5008856;28;25070;-69
2022/06/01 04:52:12;;;;;;;27.30;19.05;;;11.80;99.90;;;;;;5024563;28;25069;-68
2022/06/01 04:54:38;;;;;;;28.75;19.20;;;12.00;99.90;;;;;;5029028;28;25508;-70
2022/06/01 04:57:05;;;;;;;30.63;18.48;;;11.70;99.90;;;;;;5038984;28;25167;-70
2022/06/01 04:59:32;;;;;;;28.30;18.65;;;12.10;99.90;;;;;;5039321;28;25059;-71
2022/06/01 05:01:58;;;;;;;26.52;17.00;;;12.20;99.90;;;;;;5035623;28;25065;-71
2022/06/01 05:04:25;;;;;;;26.38;18.60;;;11.70;99.90;;;;;;5042641;28;25124;-69
2022/06/01 05:06:51;;;;;;;25.83;18.58;;;12.10;99.90;;;;;;5041147;28;25077;-69
2022/06/01 05:09:17;;;;;;;22.90;17.02;;;11.70;99.90;;;;;;5012668;28;25079;-70
2022/06/01 05:11:42;;;;;;;28.27;17.33;;;12.30;99.90;;;;;;5027072;28;24994;-69
2022/06/01 05:14:08;;;;;;;24.48;17.90;;;12.30;99.90;;;;;;5033629;28;25053;-70
2022/06/01 05:16:33;;;;;;;31.85;17.38;;;12.20;99.90;;;;;;5023382;28;25096;-70
2022/06/01 05:18:59;;;;;;;29.48;18.15;;;11.80;99.90;;;;;;5026290;28;25151;-70
2022/06/01 05:21:25;;;;;;;30.30;19.23;;;12.20;99.90;;;;;;5021828;28;25055;-70
2022/06/01 05:23:51;;;;;;;24.58;16.75;;;12.10;99.90;;;;;;5024106;28;25167;-70
2022/06/01 05:26:16;;;;;;;24.52;15.30;;;12.00;99.90;;;;;;5024254;28;25147;-69
2022/06/01 05:28:43;;;;;;;27.60;18.35;;;11.80;99.90;;;;;;5024255;28;25051;-69
2022/06/01 05:31:10;;;;;;;31.50;18.58;;;11.80;99.90;;;;;;5023952;28;25093;-65
2022/06/01 05:33:38;;;;;;;28.02;18.25;;;11.90;99.90;;;;;;5022913;28;25067;-68
2022/06/01 05:36:04;;;;;;;24.70;15.93;;;12.30;99.90;;;;;;5023904;28;25081;-69
2022/06/01 05:38:30;;;;;;;18.05;12.60;;;12.10;99.90;;;;;;5024943;28;25064;-70
2022/06/01 05:40:55;;;;;;;27.75;17.52;;;12.10;99.90;;;;;;5022137;28;25096;-69
2022/06/01 05:43:22;;;;;;;20.90;14.45;;;12.40;99.90;;;;;;5022420;28;25076;-69
2022/06/01 05:45:48;;;;;;;20.42;13.90;;;12.30;99.90;;;;;;5018385;28;25132;-69
2022/06/01 05:48:16;;;;;;;18.20;14.27;;;12.50;99.90;;;;;;5023233;28;25134;-68
2022/06/01 05:50:42;;;;;;;21.98;14.88;;;12.30;99.90;;;;;;5022385;28;25065;-68
2022/06/01 05:53:08;;;;;;;23.67;15.63;;;12.30;99.90;;;;;;5007274;28;25125;-68
2022/06/01 05:55:38;;;;;;;21.63;14.52;;;12.60;99.90;;;;;;5005196;28;25100;-68
2022/06/01 05:58:18;;;;;;;19.70;13.40;;;12.60;99.90;;;;;;5020406;28;25091;-71
2022/06/01 06:00:45;;;;;;;22.35;13.55;;;12.90;99.90;;;;;;5022592;28;25092;-70
2022/06/01 06:03:11;;;;;;;20.38;14.27;;;12.80;99.90;;;;;;5005953;28;25057;-68
2022/06/01 06:08:22;;;;;;;18.60;11.95;;;13.10;99.90;;;;;;5023539;28;25079;-69
2022/06/01 06:10:48;;;;;;;15.80;10.82;;;13.10;99.90;;;;;;5023420;28;25066;-69
2022/06/01 06:13:14;;;;;;;17.90;12.02;;;13.40;99.90;;;;;;5006789;28;25097;-68
2022/06/01 06:15:40;;;;;;;20.52;12.98;;;13.50;99.90;;;;;;5022375;28;25065;-68
2022/06/01 06:18:06;;;;;;;21.45;13.32;;;13.50;99.90;;;;;;5025068;28;25141;-69
2022/06/01 06:20:33;;;;;;;18.20;13.95;;;13.50;99.90;;;;;;5023746;28;25145;-69
2022/06/01 06:22:59;;;;;;;23.15;13.73;;;13.40;99.90;;;;;;5023128;28;25093;-69
2022/06/01 06:25:25;;;;;;;17.25;12.60;;;13.30;99.90;;;;;;5023129;28;25106;-68
2022/06/01 06:27:51;;;;;;;22.75;14.23;;;13.70;99.90;;;;;;5022264;28;25050;-67
2022/06/01 06:30:19;;;;;;;18.13;11.65;;;13.80;99.90;;;;;;5005791;28;25087;-66
2022/06/01 06:32:45;;;;;;;21.25;14.65;;;13.60;99.90;;;;;;5023755;28;25123;-70
2022/06/01 06:35:12;;;;;;;15.90;10.95;;;13.70;99.90;;;;;;5024007;28;25083;-71
2022/06/01 06:37:37;;;;;;;18.92;12.20;;;13.70;99.90;;;;;;5022683;28;25129;-68
2022/06/01 06:40:04;;;;;;;14.40;11.70;;;13.60;99.90;;;;;;5025709;28;25078;-68
2022/06/01 06:42:30;;;;;;;16.50;11.18;;;13.60;99.90;;;;;;5024219;28;25095;-70
2022/06/01 06:44:55;;;;;;;15.52;11.52;;;13.70;99.90;;;;;;5024967;28;25078;-68
2022/06/01 06:47:21;;;;;;;20.83;11.95;;;13.80;99.90;;;;;;5025547;28;25056;-68
2022/06/01 06:49:47;;;;;;;13.40;10.70;;;13.90;99.90;;;;;;5024628;28;25147;-67
2022/06/01 06:52:12;;;;;;;13.65;10.82;;;13.90;99.90;;;;;;5023713;28;25054;-69
2022/06/01 06:54:38;;;;;;;12.70;10.85;;;13.90;99.90;;;;;;5023423;28;25102;-69
2022/06/01 06:57:04;;;;;;;19.92;12.15;;;13.80;99.90;;;;;;5024584;28;25086;-66
2022/06/01 06:59:29;;;;;;;16.10;10.73;;;13.90;99.90;;;;;;5023494;28;25060;-67
2022/06/01 07:01:55;;;;;;;12.73;10.10;;;14.10;99.90;;;;;;5022966;28;25086;-70
2022/06/01 07:04:21;;;;;;;15.50;10.23;;;14.50;99.90;;;;;;5022987;28;25073;-69
2022/06/01 07:06:46;;;;;;;16.05;10.63;;;14.30;99.90;;;;;;5022969;28;25066;-67
2022/06/01 07:09:12;;;;;;;19.08;10.65;;;14.00;99.90;;;;;;5023154;28;25116;-69
2022/06/01 07:11:38;;;;;;;11.65;9.52;;;13.80;99.90;;;;;;5023334;28;25143;-68
2022/06/01 07:14:30;;;;;;;18.83;9.38;;;13.60;99.90;;;;;;5022472;28;25066;-69
2022/06/01 07:17:00;;;;;;;18.52;11.82;;;13.60;99.90;;;;;;5005069;28;25063;-68
2022/06/01 07:19:26;;;;;;;17.25;11.38;;;13.50;99.90;;;;;;5024542;28;25105;-69
2022/06/01 07:21:51;;;;;;;17.73;10.98;;;13.30;99.90;;;;;;5025705;28;25100;-69
2022/06/01 07:24:17;;;;;;;16.15;10.02;;;13.30;99.90;;;;;;5027788;28;25154;-70
2022/06/01 07:26:45;;;;;;;12.48;9.70;;;13.30;99.90;;;;;;5016369;28;25075;-68
2022/06/01 07:29:11;;;;;;;15.93;9.82;;;13.20;99.90;;;;;;5024483;28;25099;-67
2022/06/01 07:31:37;;;;;;;12.05;9.07;;;13.20;99.90;;;;;;5025888;28;25078;-68
2022/06/01 07:34:03;;;;;;;10.77;8.75;;;13.60;99.90;;;;;;5027796;28;25082;-68
2022/06/01 07:36:29;;;;;;;11.88;8.52;;;14.10;99.90;;;;;;5031540;28;25070;-68
2022/06/01 07:44:36;;;;;;;12.52;8.52;;;15.20;99.90;;;;;;5028363;28;25093;-69
2022/06/01 07:47:01;;;;;;;10.23;7.90;;;15.70;99.90;;;;;;5034964;22;25079;-65
2022/06/01 07:49:27;;;;;;;10.20;7.68;;;15.60;99.90;;;;;;5042910;28;25057;-65
2022/06/01 07:51:53;;;;;;;11.35;7.75;;;15.50;99.90;;;;;;5046097;28;25099;-67
2022/06/01 07:54:19;;;;;;;8.90;7.22;;;15.50;99.90;;;;;;5029881;28;25083;-68
2022/06/01 07:56:45;;;;;;;9.25;6.07;;;15.90;99.90;;;;;;5024964;28;25052;-65
2022/06/01 07:59:11;;;;;;;8.77;6.88;;;16.00;99.90;;;;;;5032062;23;25138;-69
2022/06/01 08:01:37;;;;;;;8.98;5.25;;;16.20;99.90;;;;;;5019652;28;25082;-68
2022/06/01 08:04:04;;;;;;;8.95;5.55;;;16.00;99.90;;;;;;5020922;28;25116;-69
2022/06/01 08:06:32;;;;;;;5.40;4.88;;;15.70;99.90;;;;;;5033595;28;25068;-69
2022/06/01 08:08:58;;;;;;;11.43;4.20;;;15.30;99.90;;;;;;5040700;28;25113;-68
2022/06/01 08:13:06;;;;;;;6.72;4.50;;;14.60;99.90;;;;;;5041486;28;25077;-69
2022/06/01 08:14:13;;;;;;;4.57;4.18;;;14.40;99.90;;;;;;5041732;28;25077;-69
2022/06/01 08:16:40;;;;;;;9.32;4.38;;;15.00;99.90;;;;;;5041154;28;25072;-69
2022/06/01 08:19:06;;;;;;;5.47;3.90;;;15.30;99.90;;;;;;5042362;28;25150;-67
2022/06/01 08:21:33;;;;;;;7.78;3.95;;;15.70;99.90;;;;;;5040715;28;25141;-67
2022/06/01 08:23:59;;;;;;;4.50;3.90;;;15.50;99.90;;;;;;5041991;28;25130;-68
2022/06/01 08:26:25;;;;;;;8.43;3.47;;;15.50;99.90;;;;;;5026286;28;25053;-68
2022/06/01 08:28:50;;;;;;;5.82;3.65;;;16.00;99.90;;;;;;5044912;28;25047;-67
2022/06/01 08:31:27;;;;;;;5.47;3.38;;;16.40;99.90;;;;;;5047630;28;25142;-63
2022/06/01 08:33:56;;;;;;;6.10;3.53;;;16.70;99.90;;;;;;5047474;28;25068;-67
2022/06/01 08:36:22;;;;;;;4.03;3.35;;;16.40;99.90;;;;;;5050069;28;25076;-69
2022/06/01 08:38:48;;;;;;;3.13;2.70;;;17.10;99.90;;;;;;5047779;28;25082;-67
2022/06/01 08:41:15;;;;;;;3.35;3.03;;;17.60;99.90;;;;;;5033228;28;25083;-67
2022/06/01 08:43:42;;;;;;;3.30;3.00;;;16.80;99.90;;;;;;5054977;28;25103;-65
2022/06/01 08:46:09;;;;;;;7.47;3.00;;;16.70;99.90;;;;;;5056790;28;25093;-66
2022/06/01 08:48:42;;;;;;;3.78;2.42;;;17.20;99.90;;;;;;5056773;28;25070;-66
2022/06/01 08:51:08;;;;;;;4.72;2.33;;;16.90;99.90;;;;;;5036251;28;25209;-68
2022/06/01 08:53:34;;;;;;;4.32;2.60;;;16.10;99.90;;;;;;5045861;28;25176;-66
2022/06/01 08:56:11;;;;;;;3.75;2.22;;;15.50;99.90;;;;;;5045655;28;25114;-68
2022/06/01 08:58:47;;;;;;;3.65;2.28;;;15.50;99.90;;;;;;5053264;28;25065;-66
2022/06/01 09:01:25;;;;;;;4.07;2.53;;;15.80;99.90;;;;;;5051457;28;25090;-66
2022/06/01 09:04:05;;;;;;;4.32;2.55;;;16.50;99.90;;;;;;5048646;28;25054;-68
2022/06/01 09:06:40;;;;;;;5.05;2.30;;;16.90;99.90;;;;;;5050431;28;25057;-67
2022/06/01 09:09:30;;;;;;;4.82;2.33;;;16.70;99.90;;;;;;5049293;28;25097;-66
2022/06/01 09:11:56;;;;;;;3.25;2.13;;;16.40;99.90;;;;;;5049295;28;25140;-69
2022/06/01 09:14:28;;;;;;;5.32;2.28;;;16.30;99.90;;;;;;5045228;28;25056;-67
2022/06/01 09:16:59;;;;;;;2.28;1.83;;;17.00;99.90;;;;;;5043752;28;26159;-67
2022/06/01 09:19:30;;;;;;;2.15;1.83;;;16.30;99.90;;;;;;5044705;28;25173;-67
2022/06/01 09:24:48;;;;;;;5.88;2.08;;;15.30;99.90;;;;;;5043453;28;25086;-69
2022/06/01 09:27:14;;;;;;;4.88;2.10;;;16.00;99.90;;;;;;5043213;28;25067;-68
2022/06/01 09:29:49;;;;;;;3.33;2.20;;;16.60;99.90;;;;;;5043759;28;25067;-67
2022/06/01 09:32:33;;;;;;;4.88;1.63;;;17.10;99.30;;;;;;5043824;28;25051;-67
2022/06/01 09:35:03;;;;;;;1.73;1.30;;;17.60;95.60;;;;;;5044384;28;25084;-69
2022/06/01 09:37:33;;;;;;;3.45;1.55;;;17.60;96.10;;;;;;5043105;28;25126;-67
2022/06/01 09:40:04;;;;;;;1.35;1.20;;;17.00;92.90;;;;;;5043857;28;25125;-67
2022/06/01 09:42:40;;;;;;;3.25;1.00;;;16.60;91.80;;;;;;5042118;28;25068;-68
2022/06/01 09:45:25;;;;;;;1.15;0.82;;;16.40;93.10;;;;;;5043288;28;25118;-65
2022/06/01 09:47:52;;;;;;;1.75;0.95;;;16.40;92.70;;;;;;5043676;28;25165;-66
2022/06/01 09:50:28;;;;;;;3.15;1.00;;;16.70;92.50;;;;;;5043769;28;25065;-65
2022/06/01 09:53:19;;;;;;;3.72;1.17;;;17.10;91.60;;;;;;5044175;28;25106;-69
2022/06/01 09:55:52;;;;;;;2.72;2.08;;;17.60;90.70;;;;;;5034860;28;25132;-66
2022/06/01 10:07:17;;;;;;;2.53;1.02;;;18.00;87.40;;;;;;5030179;28;25056;-67
2022/06/01 10:09:52;;;;;;;2.25;0.88;;;17.80;90.80;;;;;;5047164;28;25058;-67
2022/06/01 10:12:29;;;;;;;3.30;1.20;;;17.20;93.00;;;;;;5045759;28;25114;-68
2022/06/01 10:14:56;;;;;;;2.15;1.20;;;17.40;93.50;;;;;;5046777;28;25098;-69
2022/06/01 10:17:28;;;;;;;2.33;1.17;;;17.30;92.80;;;;;;5048274;28;25067;-66
2022/06/01 10:20:13;;;;;;;2.40;1.10;;;17.80;94.90;;;;;;5048181;28;25065;-68
2022/06/01 10:23:09;;;;;;;1.15;1.05;;;17.20;93.70;;;;;;5046419;28;25079;-67
2022/06/01 10:25:47;;;;;;;4.55;1.83;;;17.40;95.00;;;;;;5028291;28;25049;-67
2022/06/01 10:28:43;;;;;;;2.33;1.77;;;16.90;94.20;;;;;;5044904;28;25060;-69
2022/06/01 10:31:18;;;;;;;3.35;1.50;;;17.30;95.70;;;;;;5033140;28;25085;-66
2022/06/01 10:33:50;;;;;;;2.40;1.33;;;18.10;92.80;;;;;;5044170;28;25070;-65
2022/06/01 10:36:19;;;;;;;;;;;18.10;90.80;;;;;;5043577;28;25072;-68
2022/06/01 10:39:08;;;;;;;2.67;1.70;;;17.60;92.50;;;;;;5024422;28;24102;-69
2022/06/01 10:42:04;;;;;;;1.40;1.25;;;16.80;94.70;;;;;;5025074;28;25040;-70
2022/06/01 10:44:35;;;;;;;2.53;1.30;;;16.70;96.30;;;;;;5043391;28;25064;-68
2022/06/01 10:47:08;;;;;;;0.95;0.70;;;16.50;93.10;;;;;;5025741;28;25066;-69
2022/06/01 10:49:39;;;;;;;5.85;1.20;;;16.50;92.60;;;;;;5044970;28;25072;-68
2022/06/01 10:52:15;;;;;;;3.53;0.98;;;16.70;92.30;;;;;;5049140;28;25103;-69
2022/06/01 10:54:54;;;;;;;1.73;1.23;;;17.30;90.90;;;;;;5048225;28;25119;-69
2022/06/01 10:57:21;;;;;;;1.27;1.05;;;17.50;90.90;;;;;;5026060;28;25096;-67
2022/06/01 10:59:48;;;;;;;2.58;1.70;;;17.50;89.70;;;;;;5045262;28;25077;-68
2022/06/01 11:02:38;;;;;;;4.60;1.50;;;17.40;91.50;;;;;;5047625;28;25094;-68
2022/06/01 11:05:27;;;;;;;3.95;1.70;;;17.30;93.70;;;;;;5061640;28;25078;-68
2022/06/01 11:08:17;;;;;;;1.70;0.98;;;17.90;93.10;;;;;;5062648;28;25066;-71
2022/06/01 11:10:46;;;;;;;2.65;1.10;;;17.70;90.50;;;;;;5061349;28;25061;-68
2022/06/01 11:13:40;;;;;;;1.20;0.82;;;17.10;91.70;;;;;;5043841;28;25072;-70
2022/06/01 11:16:38;;;;;;;1.33;1.00;;;17.30;91.50;;;;;;5058028;28;25100;-70
2022/06/01 11:19:56;;;;;;;1.85;1.10;;;16.40;91.70;;;;;;5039482;28;25063;-69
2022/06/01 11:22:37;;;;;;;1.85;1.00;;;16.50;93.00;;;;;;4992731;28;25104;-68
2022/06/01 11:25:21;;;;;;;1.73;1.35;;;17.10;92.50;;;;;;5047168;28;25059;-68
2022/06/01 11:27:57;;;;;;;4.45;1.85;;;17.40;92.60;;;;;;5044465;28;25050;-69
2022/06/01 11:30:33;;;;;;;3.10;1.15;;;17.30;91.70;;;;;;5044097;28;25076;-67
2022/06/01 11:33:17;;;;;;;1.25;1.15;;;17.40;93.60;;;;;;5042351;28;25045;-69
2022/06/01 11:35:49;;;;;;;3.42;1.60;;;17.80;89.50;;;;;;5043311;28;25172;-68
2022/06/01 11:38:18;;;;;;;1.48;1.20;;;17.90;89.10;;;;;;5042721;28;25151;-70
2022/06/01 11:40:52;;;;;;;1.30;1.20;;;17.60;88.80;;;;;;5044229;28;25090;-71
2022/06/01 11:43:39;;;;;;;1.88;1.48;;;18.10;83.90;;;;;;5042208;28;25151;-69
2022/06/01 11:46:14;;;;;;;1.67;0.90;;;18.50;83.40;;;;;;5050383;22;25065;-63
2022/06/01 11:48:47;;;;;;;1.58;1.17;;;18.20;80.60;;;;;;5039866;28;25112;-64
2022/06/01 11:51:17;;;;;;;1.52;1.00;;;18.10;83.80;;;;;;5036874;28;25110;-64
2022/06/01 11:53:54;;;;;;;3.50;1.40;;;18.70;79.80;;;;;;5036273;28;25167;-65
2022/06/01 11:56:30;;;;;;;4.60;1.55;;;18.40;74.90;;;;;;5035638;28;25058;-66
2022/06/01 11:59:03;;;;;;;2.00;1.80;;;18.00;77.90;;;;;;5054772;22;25083;-68
2022/06/01 12:02:09;;;;;;;1.58;1.30;;;17.10;84.10;;;;;;5059603;28;25066;-69
2022/06/01 12:04:41;;;;;;;3.97;1.60;;;16.60;84.70;;;;;;5055397;28;25161;-66
2022/06/01 12:07:11;;;;;;;2.00;0.90;;;16.80;84.80;;;;;;5058634;28;25076;-69
2022/06/01 12:09:48;;;;;;;3.72;1.77;;;17.20;80.00;;;;;;5058767;28;25161;-66
2022/06/01 12:12:24;;;;;;;3.13;1.67;;;17.40;77.20;;;;;;5038913;28;25065;-71
2022/06/01 12:15:15;;;;;;;2.00;1.40;;;17.90;86.40;;;;;;5056903;28;25118;-66
2022/06/01 12:17:58;;;;;;;2.08;1.67;;;18.80;77.20;;;;;;5059716;28;25060;-70
2022/06/01 12:20:24;;;;;;;1.40;1.30;;;18.90;74.30;;;;;;5066512;28;25062;-70
2022/06/01 12:28:56;;;;;;;4.22;1.70;;;18.70;68.10;;;;;;5080148;28;25055;-70
2022/06/01 12:31:26;;;;;;;2.72;1.33;;;18.80;68.00;;;;;;5078488;28;25058;-70
2022/06/01 12:34:08;;;;;;;2.80;1.50;;;18.60;74.60;;;;;;5059275;28;25091;-70
2022/06/01 12:36:40;;;;;;;;;;;19.00;70.70;;;;;;5078889;28;25092;-72
2022/06/01 12:39:08;;;;;;;8.40;1.50;;;18.60;69.20;;;;;;5081763;28;24082;-71
2022/06/01 12:41:36;;;;;;;1.63;1.50;;;18.10;67.90;;;;;;5072141;28;25115;-70
2022/06/01 12:44:06;;;;;;;2.70;1.60;;;18.00;70.70;;;;;;5062450;28;25064;-68
2022/06/01 12:46:43;;;;;;;3.65;1.25;;;18.20;71.30;;;;;;5048099;28;25116;-69
2022/06/01 12:49:21;;;;;;;2.38;1.25;;;18.30;75.00;;;;;;5045073;28;25077;-69
2022/06/01 12:51:49;;;;;;;2.92;1.58;;;18.90;74.30;;;;;;5063858;28;25162;-71
2022/06/01 12:54:26;;;;;;;3.47;1.38;;;18.70;74.80;;;;;;5060090;28;25105;-70
2022/06/01 12:56:51;;;;;;;6.47;2.22;;;19.00;71.30;;;;;;5057677;28;25103;-69
2022/06/01 12:59:18;;;;;;;4.20;1.67;;;18.30;66.00;;;;;;5060853;28;25108;-70
2022/06/01 13:01:48;;;;;;;2.22;1.65;;;18.20;73.20;;;;;;5061082;28;25085;-69
2022/06/01 13:04:22;;;;;;;2.53;1.85;;;18.60;73.40;;;;;;5060035;28;25056;-67
2022/06/01 13:06:48;;;;;;;1.83;1.52;;;17.80;75.60;;;;;;5057247;28;25133;-70
2022/06/01 13:09:19;;;;;;;2.47;1.42;;;17.70;78.40;;;;;;5057989;28;25134;-68
2022/06/01 13:11:56;;;;;;;3.40;1.80;;;17.60;80.60;;;;;;5055805;28;25122;-68
2022/06/01 13:14:25;;;;;;;4.80;1.70;;;17.50;80.30;;;;;;5056001;28;25058;-68
2022/06/01 13:16:51;;;;;;;11.93;1.52;;;17.30;79.50;;;;;;5057871;28;25087;-68
2022/06/01 13:19:27;;;;;;;2.38;1.38;;;17.00;75.70;;;;;;5056979;28;25151;-68
2022/06/01 13:21:52;;;;;;;1.00;0.90;;;17.20;77.00;;;;;;5061109;28;25075;-67